createdAt,value
2019-02-10T03:08:17.576Z,22.3
2019-02-10T03:09:07.042Z,22.3
2019-02-10T03:09:57.891Z,22.3
2019-02-10T03:10:47.811Z,22.3
2019-02-10T03:11:38.055Z,22.3
2019-02-10T03:12:28.068Z,22.3
2019-02-10T03:13:18.086Z,22.3
2019-02-10T03:14:07.929Z,22.3
2019-02-10T03:14:58.538Z,22.3
2019-02-10T03:15:48.334Z,22.3
2019-02-10T03:16:38.624Z,22.3
2019-02-10T03:17:27.895Z,22.3
2019-02-10T03:18:18.629Z,22.3
2019-02-10T03:19:08.512Z,22.3
2019-02-10T03:19:58.650Z,22.3
2019-02-10T03:20:48.912Z,22.3
2019-02-10T03:21:38.689Z,22.3
2019-02-10T03:22:28.782Z,22.4
2019-02-10T03:23:18.522Z,22.4
2019-02-10T03:24:09.179Z,22.4
2019-02-10T03:24:58.671Z,22.4
2019-02-10T03:25:48.524Z,22.4
2019-02-10T03:26:39.307Z,22.4
2019-02-10T03:27:28.540Z,22.5
2019-02-10T03:28:19.401Z,22.5
2019-02-10T03:29:08.914Z,22.5
2019-02-10T03:29:59.019Z,22.5
2019-02-10T03:30:49.750Z,22.5
2019-02-10T03:31:39.990Z,22.6
2019-02-10T03:32:29.090Z,22.6
2019-02-10T03:33:19.823Z,22.6
2019-02-10T03:34:09.958Z,22.6
2019-02-10T03:34:59.622Z,22.6
2019-02-10T03:35:49.083Z,22.6
2019-02-10T03:36:39.712Z,22.6
2019-02-10T03:37:33.983Z,22.6
2019-02-10T03:38:19.366Z,22.6
2019-02-10T03:39:09.654Z,22.5
2019-02-10T03:39:59.966Z,22.4
2019-02-10T03:40:49.695Z,22.4
2019-02-10T03:41:40.338Z,22.3
2019-02-10T03:42:30.126Z,22.3
2019-02-10T03:43:19.883Z,22.3
2019-02-10T03:44:09.961Z,22.3
2019-02-10T03:45:00.101Z,22.3
2019-02-10T03:45:50.042Z,22.3
2019-02-10T03:46:40.383Z,22.3
2019-02-10T03:47:30.831Z,22.3
2019-02-10T03:48:20.801Z,22.3
2019-02-10T03:49:10.042Z,22.3
2019-02-10T03:50:00.292Z,22.4
2019-02-10T03:50:50.671Z,22.4
2019-02-10T03:51:40.789Z,22.4
2019-02-10T03:52:30.051Z,22.4
2019-02-10T03:53:20.583Z,22.4
2019-02-10T03:54:10.407Z,22.4
2019-02-10T03:55:00.893Z,22.4
2019-02-10T03:55:51.110Z,22.4
2019-02-10T03:56:40.562Z,22.5
2019-02-10T03:57:31.419Z,22.5
2019-02-10T03:58:21.207Z,22.5
2019-02-10T03:59:11.323Z,22.5
2019-02-10T04:00:01.037Z,22.5
2019-02-10T04:00:51.094Z,22.6
2019-02-10T04:01:41.684Z,22.6
2019-02-10T04:02:30.944Z,22.6
2019-02-10T04:03:21.581Z,22.6
2019-02-10T04:04:11.413Z,22.5
2019-02-10T04:05:01.807Z,22.5
2019-02-10T04:05:51.732Z,22.4
2019-02-10T04:06:41.186Z,22.4
2019-02-10T04:07:40.984Z,22.4
2019-02-10T04:08:21.581Z,22.4
2019-02-10T04:09:12.220Z,22.4
2019-02-10T04:10:01.993Z,22.4
2019-02-10T04:10:52.106Z,22.3
2019-02-10T04:11:41.265Z,22.3
2019-02-10T04:12:32.165Z,22.3
2019-02-10T04:13:22.522Z,22.3
2019-02-10T04:14:12.333Z,22.3
2019-02-10T04:15:01.650Z,22.3
2019-02-10T04:15:51.819Z,22.3
2019-02-10T04:16:42.785Z,22.3
2019-02-10T04:17:32.788Z,22.3
2019-02-10T04:18:22.641Z,22.3
2019-02-10T04:19:12.605Z,22.3
2019-02-10T04:20:02.808Z,22.3
2019-02-10T04:20:52.693Z,22.3
2019-02-10T04:21:42.776Z,22.3
2019-02-10T04:22:33.197Z,22.3
2019-02-10T04:23:22.918Z,22.3
2019-02-10T04:24:12.155Z,22.4
2019-02-10T04:25:03.302Z,22.4
2019-02-10T04:25:52.855Z,22.4
2019-02-10T04:26:42.933Z,22.4
2019-02-10T04:27:32.900Z,22.4
2019-02-10T04:28:22.747Z,22.4
2019-02-10T04:29:13.307Z,22.4
2019-02-10T04:30:03.695Z,22.4
2019-02-10T04:30:53.430Z,22.4
2019-02-10T04:31:43.745Z,22.4
2019-02-10T04:32:33.843Z,22.4
2019-02-10T04:33:23.893Z,22.4
2019-02-10T04:34:14.024Z,22.3
2019-02-10T04:35:03.226Z,22.3
2019-02-10T04:35:53.770Z,22.3
2019-02-10T04:36:43.510Z,22.3
2019-02-10T04:37:33.350Z,22.3
2019-02-10T04:38:23.362Z,22.3
2019-02-10T04:39:13.993Z,22.3
2019-02-10T04:40:04.330Z,22.3
2019-02-10T04:40:54.090Z,22.3
2019-02-10T04:41:43.652Z,22.4
2019-02-10T04:42:33.389Z,22.4
2019-02-10T04:43:23.972Z,22.4
2019-02-10T04:44:13.767Z,22.4
2019-02-10T04:45:04.557Z,22.4
2019-02-10T04:45:53.939Z,22.4
2019-02-10T04:46:43.651Z,22.4
2019-02-10T04:47:34.563Z,22.4
2019-02-10T04:48:24.074Z,22.4
2019-02-10T04:49:14.677Z,22.4
2019-02-10T04:50:04.220Z,22.4
2019-02-10T04:50:54.797Z,22.3
2019-02-10T04:51:44.591Z,22.3
2019-02-10T04:52:34.674Z,22.3
2019-02-10T04:53:25.266Z,22.3
2019-02-10T04:54:15.006Z,22.3
2019-02-10T04:55:04.989Z,22.2
2019-02-10T04:55:55.151Z,22.2
2019-02-10T04:56:44.924Z,22.3
2019-02-10T04:57:35.004Z,22.3
2019-02-10T04:58:25.023Z,22.3
2019-02-10T04:59:15.379Z,22.3
2019-02-10T05:00:05.426Z,22.3
2019-02-10T05:00:55.749Z,22.3
2019-02-10T05:01:45.542Z,22.3
2019-02-10T05:02:35.358Z,22.3
2019-02-10T05:03:24.801Z,22.4
2019-02-10T05:04:15.156Z,22.4
2019-02-10T05:05:05.825Z,22.4
2019-02-10T05:05:55.831Z,22.4
2019-02-10T05:06:45.695Z,22.4
2019-02-10T05:07:35.955Z,22.4
2019-02-10T05:08:26.232Z,22.3
2019-02-10T05:09:15.791Z,22.3
2019-02-10T05:10:05.970Z,22.3
2019-02-10T05:10:56.331Z,22.3
2019-02-10T05:11:46.535Z,22.3
2019-02-10T05:12:36.300Z,22.2
2019-02-10T05:13:26.060Z,22.2
2019-02-10T05:14:15.286Z,22.2
2019-02-10T05:15:06.154Z,22.2
2019-02-10T05:15:56.277Z,22.2
2019-02-10T05:16:48.905Z,22.2
2019-02-10T05:17:36.620Z,22.2
2019-02-10T05:18:26.669Z,22.3
2019-02-10T05:19:16.243Z,22.3
2019-02-10T05:20:06.907Z,22.3
2019-02-10T05:20:56.584Z,22.3
2019-02-10T05:21:46.387Z,22.3
2019-02-10T05:22:36.962Z,22.4
2019-02-10T05:23:26.755Z,22.4
2019-02-10T05:24:17.475Z,22.4
2019-02-10T05:25:07.454Z,22.4
2019-02-10T05:25:57.493Z,22.3
2019-02-10T05:26:46.979Z,22.3
2019-02-10T05:27:37.624Z,22.3
2019-02-10T05:28:27.388Z,22.3
2019-02-10T05:29:17.184Z,22.1
2019-02-10T05:30:07.039Z,21.9
2019-02-10T05:30:57.582Z,21.7
2019-02-10T05:31:47.424Z,21.6
2019-02-10T05:32:37.429Z,21.5
2019-02-10T05:33:27.303Z,21.4
2019-02-10T05:34:17.831Z,21.3
2019-02-10T05:35:07.659Z,21.3
2019-02-10T05:35:57.899Z,21.2
2019-02-10T05:36:47.450Z,21.2
2019-02-10T05:37:38.314Z,21.2
2019-02-10T05:38:28.323Z,21.2
2019-02-10T05:39:18.433Z,21.2
2019-02-10T05:40:07.929Z,21.2
2019-02-10T05:40:57.960Z,21.2
2019-02-10T05:48:28.518Z,21.1
2019-02-10T05:49:18.042Z,21.1
2019-02-10T05:50:08.858Z,21.1
2019-02-10T05:50:58.652Z,21.1
2019-02-10T05:51:48.470Z,21.1
2019-02-10T05:52:39.058Z,21.1
2019-02-10T05:53:29.065Z,21
2019-02-10T05:54:19.155Z,21.1
2019-02-10T05:55:09.290Z,21.1
2019-02-10T05:55:59.548Z,21
2019-02-10T05:56:49.340Z,21.1
2019-02-10T05:57:39.644Z,21
2019-02-10T05:58:28.315Z,21
2019-02-10T05:59:19.215Z,20.9
2019-02-10T06:00:09.638Z,20.9
2019-02-10T06:00:59.094Z,20.9
2019-02-10T06:01:49.634Z,20.9
2019-02-10T06:02:39.961Z,20.8
2019-02-10T06:03:29.810Z,20.8
2019-02-10T06:06:17.800Z,20.8
2019-02-10T06:07:07.699Z,20.8
2019-02-10T06:07:57.562Z,20.8
2019-02-10T06:08:47.519Z,20.8
2019-02-10T06:09:36.439Z,20.8
2019-02-10T06:10:28.305Z,20.8
2019-02-10T06:11:17.794Z,20.7
2019-02-10T06:12:07.919Z,20.7
2019-02-10T06:12:58.142Z,20.7
2019-02-10T06:13:47.749Z,20.7
2019-02-10T06:14:38.372Z,20.7
2019-02-10T06:15:28.473Z,20.7
2019-02-10T06:16:18.197Z,20.7
2019-02-10T06:17:07.890Z,20.7
2019-02-10T06:17:58.541Z,20.6
2019-02-10T06:18:48.367Z,20.7
2019-02-10T06:19:38.588Z,20.7
2019-02-10T06:20:28.694Z,20.7
2019-02-10T06:21:19.661Z,20.7
2019-02-10T06:22:22.691Z,20.7
2019-02-10T06:22:58.281Z,20.7
2019-02-10T06:23:47.880Z,20.7
2019-02-10T06:24:38.539Z,20.8
2019-02-10T06:25:28.703Z,20.7
2019-02-10T06:26:18.635Z,20.7
2019-02-10T06:27:08.708Z,20.7
2019-02-10T06:27:59.303Z,20.7
2019-02-10T06:28:47.961Z,20.7
2019-02-10T06:29:38.574Z,20.7
2019-02-10T06:30:28.895Z,20.7
2019-02-10T06:31:18.981Z,20.7
2019-02-10T06:32:09.055Z,20.7
2019-02-10T06:32:58.775Z,20.7
2019-02-10T06:33:49.375Z,20.7
2019-02-10T06:34:38.613Z,20.7
2019-02-10T06:35:28.802Z,20.6
2019-02-10T06:36:21.361Z,20.7
2019-02-10T06:37:08.906Z,20.6
2019-02-10T06:37:58.617Z,20.6
2019-02-10T06:38:49.227Z,20.6
2019-02-10T06:39:40.158Z,20.6
2019-02-10T06:40:28.798Z,20.6
2019-02-10T06:41:20.175Z,20.6
2019-02-10T06:42:09.693Z,20.6
2019-02-10T06:42:59.197Z,20.6
2019-02-10T06:43:49.780Z,20.6
2019-02-10T06:44:39.064Z,20.6
2019-02-10T06:45:30.177Z,20.6
2019-02-10T06:46:19.601Z,20.7
2019-02-10T06:47:09.543Z,20.7
2019-02-10T06:48:01.149Z,20.7
2019-02-10T06:48:49.929Z,20.7
2019-02-10T06:49:40.234Z,20.7
2019-02-10T06:50:30.812Z,20.7
2019-02-10T06:51:19.749Z,20.7
2019-02-10T06:52:10.629Z,20.7
2019-02-10T06:52:59.887Z,20.7
2019-02-10T06:53:50.209Z,20.7
2019-02-10T06:54:40.586Z,20.6
2019-02-10T06:55:30.309Z,20.7
2019-02-10T06:56:20.651Z,20.6
2019-02-10T06:57:11.267Z,20.6
2019-02-10T06:58:00.764Z,20.6
2019-02-10T06:58:51.619Z,20.6
2019-02-10T06:59:40.610Z,20.6
2019-02-10T07:00:31.253Z,20.6
2019-02-10T07:01:20.736Z,20.6
2019-02-10T07:02:10.766Z,20.6
2019-02-10T07:03:00.851Z,20.6
2019-02-10T07:03:50.888Z,20.7
2019-02-10T07:06:16.359Z,20.6
2019-02-10T07:07:07.559Z,20.6
2019-02-10T07:07:57.064Z,20.7
2019-02-10T07:08:47.144Z,20.7
2019-02-10T07:09:37.440Z,20.7
2019-02-10T07:10:27.470Z,20.7
2019-02-10T07:11:16.473Z,20.8
2019-02-10T07:12:07.301Z,20.8
2019-02-10T07:12:57.923Z,20.9
2019-02-10T07:13:47.975Z,20.9
2019-02-10T07:14:38.053Z,20.9
2019-02-10T07:15:27.587Z,20.9
2019-02-10T07:16:17.895Z,20.9
2019-02-10T07:17:07.368Z,20.8
2019-02-10T07:17:57.972Z,20.8
2019-02-10T07:18:47.747Z,20.8
2019-02-10T07:19:38.147Z,20.8
2019-02-10T07:20:27.947Z,20.8
2019-02-10T07:21:18.294Z,20.8
2019-02-10T07:22:08.000Z,20.8
2019-02-10T07:22:58.628Z,20.8
2019-02-10T07:23:48.714Z,20.8
2019-02-10T07:24:37.913Z,20.8
2019-02-10T07:25:29.047Z,20.8
2019-02-10T07:26:18.300Z,20.7
2019-02-10T07:27:08.632Z,20.7
2019-02-10T07:27:58.659Z,20.7
2019-02-10T07:28:49.019Z,20.7
2019-02-10T07:29:38.799Z,20.7
2019-02-10T07:30:28.874Z,20.7
2019-02-10T07:31:19.228Z,20.7
2019-02-10T07:32:08.715Z,20.7
2019-02-10T07:32:59.039Z,20.7
2019-02-10T07:33:49.089Z,20.7
2019-02-10T07:34:39.143Z,20.8
2019-02-10T07:35:29.312Z,20.8
2019-02-10T07:36:19.025Z,20.8
2019-02-10T07:37:09.934Z,20.8
2019-02-10T07:37:59.967Z,20.8
2019-02-10T07:38:49.406Z,20.8
2019-02-10T07:39:39.496Z,20.8
2019-02-10T07:40:28.709Z,20.8
2019-02-10T07:41:19.367Z,20.8
2019-02-10T07:42:09.653Z,20.8
2019-02-10T07:42:58.916Z,20.8
2019-02-10T07:43:49.573Z,20.8
2019-02-10T07:44:39.553Z,20.8
2019-02-10T07:45:29.383Z,20.7
2019-02-10T07:46:19.723Z,20.7
2019-02-10T07:47:09.461Z,20.7
2019-02-10T07:48:01.232Z,20.7
2019-02-10T07:48:50.212Z,20.7
2019-02-10T07:49:39.986Z,20.7
2019-02-10T07:50:30.038Z,20.7
2019-02-10T07:51:20.593Z,20.7
2019-02-10T07:52:09.306Z,20.7
2019-02-10T07:52:59.740Z,20.7
2019-02-10T07:53:49.440Z,20.7
2019-02-10T07:54:47.785Z,20.6
2019-02-10T07:55:29.263Z,20.6
2019-02-10T07:56:20.937Z,20.6
2019-02-10T07:57:10.510Z,20.6
2019-02-10T07:57:59.532Z,20.7
2019-02-10T07:58:50.333Z,20.7
2019-02-10T07:59:40.926Z,20.7
2019-02-10T08:00:30.760Z,20.8
2019-02-10T08:01:20.800Z,20.7
2019-02-10T08:02:11.330Z,20.8
2019-02-10T08:03:00.068Z,20.8
2019-02-10T08:03:50.677Z,20.8
2019-02-10T08:04:41.017Z,20.8
2019-02-10T08:05:31.067Z,20.8
2019-02-10T08:06:20.100Z,20.8
2019-02-10T08:07:13.073Z,20.8
2019-02-10T08:08:01.249Z,20.8
2019-02-10T08:08:53.717Z,20.8
2019-02-10T08:09:41.333Z,20.8
2019-02-10T08:10:31.389Z,20.7
2019-02-10T08:11:21.447Z,20.7
2019-02-10T08:12:12.004Z,20.7
2019-02-10T08:13:01.809Z,20.7
2019-02-10T08:13:51.574Z,20.7
2019-02-10T08:14:42.211Z,20.7
2019-02-10T08:15:30.934Z,20.7
2019-02-10T08:16:22.030Z,20.7
2019-02-10T08:17:12.367Z,20.7
2019-02-10T08:18:01.049Z,20.7
2019-02-10T08:18:52.476Z,20.7
2019-02-10T08:19:42.592Z,20.7
2019-02-10T08:20:32.596Z,20.6
2019-02-10T08:21:23.136Z,20.7
2019-02-10T08:22:12.726Z,20.7
2019-02-10T08:23:01.938Z,20.7
2019-02-10T08:23:52.819Z,20.7
2019-02-10T08:24:41.283Z,20.7
2019-02-10T08:25:32.997Z,20.7
2019-02-10T08:26:23.035Z,20.8
2019-02-10T08:27:12.788Z,20.8
2019-02-10T08:28:03.210Z,20.8
2019-02-10T08:28:52.489Z,20.8
2019-02-10T08:29:44.818Z,20.8
2019-02-10T08:30:32.728Z,20.8
2019-02-10T08:31:22.557Z,20.8
2019-02-10T08:32:12.852Z,20.8
2019-02-10T08:33:02.630Z,20.8
2019-02-10T08:33:53.510Z,20.8
2019-02-10T08:34:42.267Z,20.8
2019-02-10T08:35:34.121Z,20.8
2019-02-10T08:36:23.418Z,20.8
2019-02-10T08:37:13.490Z,20.8
2019-02-10T08:38:03.000Z,20.8
2019-02-10T08:39:01.035Z,20.8
2019-02-10T08:39:43.642Z,20.8
2019-02-10T08:40:33.017Z,20.7
2019-02-10T08:41:23.780Z,20.7
2019-02-10T08:42:13.538Z,20.7
2019-02-10T08:43:03.887Z,20.7
2019-02-10T08:43:53.186Z,20.7
2019-02-10T08:44:43.237Z,20.7
2019-02-10T08:45:33.494Z,20.7
2019-02-10T08:46:24.377Z,20.6
2019-02-10T08:47:14.439Z,20.7
2019-02-10T08:48:04.848Z,20.7
2019-02-10T08:48:54.292Z,20.7
2019-02-10T08:49:44.294Z,20.7
2019-02-10T08:50:34.162Z,20.7
2019-02-10T08:51:24.194Z,20.8
2019-02-10T08:52:14.237Z,20.8
2019-02-10T08:53:03.551Z,20.7
2019-02-10T08:53:54.630Z,20.8
2019-02-10T08:54:44.971Z,20.8
2019-02-10T08:55:34.806Z,20.7
2019-02-10T08:56:25.086Z,20.7
2019-02-10T08:57:15.161Z,20.7
2019-02-10T08:58:04.196Z,20.7
2019-02-10T08:58:54.443Z,20.7
2019-02-10T08:59:45.049Z,20.6
2019-02-10T09:00:34.884Z,20.7
2019-02-10T09:01:24.638Z,20.7
2019-02-10T09:02:15.014Z,20.7
2019-02-10T09:03:05.843Z,20.7
2019-02-10T09:03:55.396Z,20.8
2019-02-10T09:04:45.461Z,20.8
2019-02-10T09:05:35.458Z,20.8
2019-02-10T09:06:24.431Z,20.8
2019-02-10T09:07:17.579Z,20.8
2019-02-10T09:08:05.670Z,20.8
2019-02-10T09:09:04.413Z,20.7
2019-02-10T09:09:45.787Z,20.7
2019-02-10T09:10:35.896Z,20.8
2019-02-10T09:11:25.637Z,20.7
2019-02-10T09:12:16.262Z,20.8
2019-02-10T09:13:06.257Z,20.8
2019-02-10T09:13:55.545Z,20.7
2019-02-10T09:14:45.540Z,20.7
2019-02-10T09:15:36.690Z,20.7
2019-02-10T09:16:25.720Z,20.7
2019-02-10T09:17:16.267Z,20.7
2019-02-10T09:18:06.682Z,20.7
2019-02-10T09:18:56.407Z,20.7
2019-02-10T09:19:46.447Z,20.7
2019-02-10T09:20:35.942Z,20.7
2019-02-10T09:21:26.272Z,20.7
2019-02-10T09:22:16.614Z,20.6
2019-02-10T09:23:06.949Z,20.6
2019-02-10T09:23:57.283Z,20.6
2019-02-10T09:24:46.231Z,20.6
2019-02-10T09:25:37.126Z,20.7
2019-02-10T09:26:26.879Z,20.7
2019-02-10T09:27:16.664Z,20.7
2019-02-10T09:28:06.724Z,20.7
2019-02-10T09:28:57.337Z,20.7
2019-02-10T09:29:46.669Z,20.7
2019-02-10T09:30:36.367Z,20.7
2019-02-10T09:31:27.817Z,20.8
2019-02-10T09:32:17.309Z,20.7
2019-02-10T09:33:07.096Z,20.7
2019-02-10T09:33:57.152Z,20.7
2019-02-10T09:34:47.202Z,20.7
2019-02-10T09:35:37.260Z,20.7
2019-02-10T09:36:27.913Z,20.7
2019-02-10T09:37:17.429Z,20.7
2019-02-10T09:38:07.439Z,20.7
2019-02-10T09:38:57.816Z,20.7
2019-02-10T09:39:47.852Z,20.7
2019-02-10T09:40:38.197Z,20.7
2019-02-10T09:41:28.501Z,20.7
2019-02-10T09:42:17.738Z,20.7
2019-02-10T09:43:08.076Z,20.7
2019-02-10T09:43:57.902Z,20.6
2019-02-10T09:44:47.917Z,20.6
2019-02-10T09:45:37.946Z,20.6
2019-02-10T09:46:28.921Z,20.6
2019-02-10T09:47:18.383Z,20.6
2019-02-10T09:48:08.720Z,20.6
2019-02-10T09:48:58.726Z,20.7
2019-02-10T09:49:48.300Z,20.8
2019-02-10T09:50:38.315Z,20.8
2019-02-10T09:51:29.190Z,20.8
2019-02-10T09:52:18.124Z,20.8
2019-02-10T09:53:07.730Z,20.8
2019-02-10T09:53:58.840Z,20.8
2019-02-10T09:54:48.853Z,20.8
2019-02-10T09:55:39.209Z,20.8
2019-02-10T09:56:29.285Z,20.8
2019-02-10T09:57:18.489Z,20.8
2019-02-10T09:58:08.535Z,20.8
2019-02-10T09:58:59.433Z,20.7
2019-02-10T09:59:49.210Z,20.6
2019-02-10T10:00:39.572Z,20.6
2019-02-10T10:01:29.375Z,20.5
2019-02-10T10:02:19.757Z,20.4
2019-02-10T10:03:10.017Z,20.4
2019-02-10T10:03:59.830Z,20.4
2019-02-10T10:04:49.845Z,20.4
2019-02-10T10:07:17.367Z,20.3
2019-02-10T10:08:07.427Z,20.3
2019-02-10T10:08:57.747Z,20.3
2019-02-10T10:09:47.247Z,20.3
2019-02-10T10:10:37.312Z,20.3
2019-02-10T10:11:27.904Z,20.3
2019-02-10T10:12:17.476Z,20.3
2019-02-10T10:13:08.059Z,20.3
2019-02-10T10:13:57.244Z,20.3
2019-02-10T10:14:47.326Z,20.2
2019-02-10T10:15:38.204Z,20.2
2019-02-10T10:16:27.989Z,20.1
2019-02-10T10:17:18.041Z,20.1
2019-02-10T10:18:07.563Z,20.1
2019-02-10T10:18:57.949Z,20.1
2019-02-10T10:19:47.653Z,20.1
2019-02-10T10:20:38.550Z,20.1
2019-02-10T10:21:27.814Z,20.1
2019-02-10T10:22:18.381Z,20.1
2019-02-10T10:23:07.918Z,20.1
2019-02-10T10:23:58.546Z,20.1
2019-02-10T10:24:56.595Z,20.1
2019-02-10T10:25:38.043Z,20.1
2019-02-10T10:26:28.961Z,20.1
2019-02-10T10:27:18.743Z,20.1
2019-02-10T10:28:09.105Z,20.1
2019-02-10T10:28:58.938Z,20.1
2019-02-10T10:29:49.175Z,20.1
2019-02-10T10:30:39.230Z,20.1
2019-02-10T10:31:29.293Z,20.1
2019-02-10T10:32:19.423Z,20.1
2019-02-10T10:33:09.130Z,20.1
2019-02-10T10:33:58.713Z,20.2
2019-02-10T10:34:49.270Z,20.2
2019-02-10T10:35:39.284Z,20.2
2019-02-10T10:36:29.689Z,20.3
2019-02-10T10:37:19.829Z,20.3
2019-02-10T10:38:09.208Z,20.3
2019-02-10T10:38:59.269Z,20.3
2019-02-10T10:39:49.596Z,20.3
2019-02-10T10:40:39.786Z,20.3
2019-02-10T10:41:30.020Z,20.3
2019-02-10T10:42:19.786Z,20.3
2019-02-10T10:43:09.888Z,20.4
2019-02-10T10:44:00.171Z,20.3
2019-02-10T10:44:50.220Z,20.4
2019-02-10T10:45:39.993Z,20.4
2019-02-10T10:46:30.063Z,20.4
2019-02-10T10:47:20.103Z,20.4
2019-02-10T10:48:09.903Z,20.3
2019-02-10T10:49:00.246Z,20.2
2019-02-10T10:49:50.081Z,20.2
2019-02-10T10:50:40.628Z,20.2
2019-02-10T10:51:30.400Z,20.2
2019-02-10T10:52:20.495Z,20.2
2019-02-10T10:53:10.070Z,20.2
2019-02-10T10:54:00.340Z,20.2
2019-02-10T10:54:50.625Z,20.3
2019-02-10T10:55:40.707Z,20.3
2019-02-10T10:56:30.286Z,20.3
2019-02-10T10:57:25.092Z,20.4
2019-02-10T10:58:10.885Z,20.4
2019-02-10T10:59:01.200Z,20.6
2019-02-10T10:59:51.240Z,20.6
2019-02-10T11:00:40.763Z,20.6
2019-02-10T11:01:32.925Z,20.5
2019-02-10T11:02:21.419Z,20.4
2019-02-10T11:03:10.738Z,20.3
2019-02-10T11:04:01.547Z,20.1
2019-02-10T11:04:51.627Z,20.1
2019-02-10T11:05:41.120Z,19.9
2019-02-10T11:06:31.739Z,19.9
2019-02-10T11:07:21.507Z,19.9
2019-02-10T11:08:11.029Z,19.9
2019-02-10T11:09:01.671Z,19.9
2019-02-10T11:09:51.681Z,19.9
2019-02-10T11:10:42.022Z,19.9
2019-02-10T11:11:32.084Z,19.8
2019-02-10T11:12:21.091Z,19.7
2019-02-10T11:13:11.647Z,19.6
2019-02-10T11:14:01.946Z,19.6
2019-02-10T11:14:52.024Z,19.6
2019-02-10T11:15:42.087Z,19.5
2019-02-10T11:16:32.056Z,19.4
2019-02-10T11:17:21.944Z,19.4
2019-02-10T11:18:11.723Z,19.4
2019-02-10T11:19:01.854Z,19.4
2019-02-10T11:19:52.454Z,19.4
2019-02-10T11:20:42.221Z,19.4
2019-02-10T11:21:31.229Z,19.3
2019-02-10T11:22:21.781Z,19.3
2019-02-10T11:23:11.855Z,19.3
2019-02-10T11:24:02.954Z,19.3
2019-02-10T11:24:52.525Z,19.4
2019-02-10T11:25:42.093Z,19.4
2019-02-10T11:26:32.635Z,19.4
2019-02-10T11:27:22.758Z,19.5
2019-02-10T11:28:12.443Z,19.5
2019-02-10T11:29:02.505Z,19.6
2019-02-10T11:29:52.568Z,19.6
2019-02-10T11:30:42.917Z,19.5
2019-02-10T11:31:32.768Z,19.4
2019-02-10T11:32:22.805Z,19.4
2019-02-10T11:33:12.558Z,19.4
2019-02-10T11:34:03.147Z,19.3
2019-02-10T11:34:52.106Z,19.3
2019-02-10T11:35:42.748Z,19.2
2019-02-10T11:36:33.358Z,19.1
2019-02-10T11:37:33.105Z,19.1
2019-02-10T11:38:13.472Z,19.1
2019-02-10T11:39:03.230Z,19.1
2019-02-10T11:39:53.567Z,19.1
2019-02-10T11:40:43.038Z,19.1
2019-02-10T11:41:33.392Z,19.1
2019-02-10T11:42:23.733Z,19.1
2019-02-10T11:43:13.509Z,19.3
2019-02-10T11:44:02.732Z,19.3
2019-02-10T11:44:53.634Z,19.4
2019-02-10T11:45:43.952Z,19.4
2019-02-10T11:46:33.437Z,19.4
2019-02-10T11:47:23.817Z,19.3
2019-02-10T11:48:14.717Z,19.3
2019-02-10T11:49:04.199Z,19.3
2019-02-10T11:49:53.694Z,19.4
2019-02-10T11:50:44.365Z,19.4
2019-02-10T11:51:33.825Z,19.4
2019-02-10T11:52:24.424Z,19.5
2019-02-10T11:53:13.901Z,19.6
2019-02-10T11:54:04.318Z,19.6
2019-02-10T11:54:54.345Z,19.6
2019-02-10T11:55:44.659Z,19.7
2019-02-10T11:56:34.720Z,19.8
2019-02-10T11:57:24.484Z,19.8
2019-02-10T11:58:14.808Z,19.8
2019-02-10T11:59:19.478Z,19.8
2019-02-10T11:59:54.939Z,19.8
2019-02-10T12:00:45.049Z,19.8
2019-02-10T12:01:34.296Z,19.8
2019-02-10T12:02:25.026Z,19.8
2019-02-10T12:03:15.381Z,19.8
2019-02-10T12:04:44.571Z,19.9
2019-02-10T12:07:16.706Z,20
2019-02-10T12:08:06.438Z,20.1
2019-02-10T12:08:56.488Z,20.1
2019-02-10T12:10:01.776Z,20.2
2019-02-10T12:10:37.147Z,20.2
2019-02-10T12:11:41.595Z,20.2
2019-02-10T12:12:17.045Z,20.2
2019-02-10T12:13:07.065Z,20.2
2019-02-10T12:13:57.655Z,20.1
2019-02-10T12:14:47.478Z,20.2
2019-02-10T12:15:36.918Z,20.1
2019-02-10T12:16:26.187Z,20.2
2019-02-10T12:17:17.822Z,20.1
2019-02-10T12:18:07.423Z,20.1
2019-02-10T12:18:57.995Z,20.1
2019-02-10T12:19:46.968Z,20.1
2019-02-10T12:20:37.905Z,20
2019-02-10T12:21:27.345Z,19.9
2019-02-10T12:22:17.890Z,19.9
2019-02-10T12:23:22.697Z,19.9
2019-02-10T12:23:58.432Z,19.9
2019-02-10T12:24:47.872Z,19.9
2019-02-10T12:25:38.792Z,19.9
2019-02-10T12:26:28.287Z,19.9
2019-02-10T12:27:18.872Z,19.9
2019-02-10T12:28:07.835Z,19.9
2019-02-10T12:28:58.445Z,20
2019-02-10T12:29:47.934Z,20.1
2019-02-10T12:30:38.560Z,20.1
2019-02-10T12:31:28.656Z,20.1
2019-02-10T12:32:18.667Z,20.1
2019-02-10T12:33:08.764Z,20.1
2019-02-10T12:33:58.590Z,20.1
2019-02-10T12:34:49.178Z,20.1
2019-02-10T12:35:38.629Z,20.1
2019-02-10T12:36:29.737Z,20.1
2019-02-10T12:37:18.510Z,20.1
2019-02-10T12:38:09.126Z,20
2019-02-10T12:38:59.079Z,20
2019-02-10T12:39:48.674Z,20
2019-02-10T12:40:39.076Z,20
2019-02-10T12:41:29.763Z,20
2019-02-10T12:42:18.531Z,20
2019-02-10T12:43:10.012Z,20
2019-02-10T12:43:59.258Z,20
2019-02-10T12:44:49.823Z,20
2019-02-10T12:45:39.613Z,20
2019-02-10T12:46:29.400Z,19.9
2019-02-10T12:47:19.970Z,19.9
2019-02-10T12:48:16.321Z,19.9
2019-02-10T12:48:59.840Z,19.9
2019-02-10T12:49:50.253Z,19.9
2019-02-10T12:50:39.673Z,19.9
2019-02-10T12:51:30.028Z,20
2019-02-10T12:52:19.828Z,20
2019-02-10T12:53:10.668Z,20
2019-02-10T12:54:00.188Z,20
2019-02-10T12:54:49.110Z,20
2019-02-10T12:55:40.578Z,20
2019-02-10T12:56:30.649Z,20.1
2019-02-10T12:57:19.623Z,20.1
2019-02-10T12:58:10.478Z,20
2019-02-10T12:59:00.260Z,20
2019-02-10T12:59:50.570Z,20
2019-02-10T13:00:42.491Z,20
2019-02-10T13:01:29.569Z,19.9
2019-02-10T13:02:20.484Z,19.7
2019-02-10T13:03:11.101Z,19.5
2019-02-10T13:04:01.195Z,19.4
2019-02-10T13:04:51.507Z,19.4
2019-02-10T13:05:40.727Z,19.5
2019-02-10T13:06:30.532Z,19.5
2019-02-10T13:07:20.274Z,19.6
2019-02-10T13:08:11.179Z,19.6
2019-02-10T13:09:01.037Z,19.6
2019-02-10T13:09:51.299Z,19.4
2019-02-10T13:10:41.072Z,19.4
2019-02-10T13:11:31.679Z,19.4
2019-02-10T13:12:21.474Z,19.4
2019-02-10T13:13:18.871Z,19.3
2019-02-10T13:14:01.277Z,19.2
2019-02-10T13:14:50.784Z,19.3
2019-02-10T13:15:41.416Z,19.4
2019-02-10T13:16:32.296Z,19.5
2019-02-10T13:17:21.896Z,19.4
2019-02-10T13:18:12.433Z,19.4
2019-02-10T13:19:02.501Z,19.4
2019-02-10T13:19:51.426Z,19.5
2019-02-10T13:20:41.493Z,19.6
2019-02-10T13:21:31.269Z,19.6
2019-02-10T13:22:21.931Z,19.5
2019-02-10T13:23:11.387Z,19.6
2019-02-10T13:24:01.988Z,19.6
2019-02-10T13:24:52.336Z,19.6
2019-02-10T13:25:42.681Z,19.6
2019-02-10T13:26:31.746Z,19.6
2019-02-10T13:27:21.960Z,19.5
2019-02-10T13:28:12.288Z,19.5
2019-02-10T13:29:02.901Z,19.4
2019-02-10T13:29:52.691Z,19.5
2019-02-10T13:30:43.038Z,19.5
2019-02-10T13:31:32.009Z,19.5
2019-02-10T13:32:22.906Z,19.4
2019-02-10T13:33:13.133Z,19.4
2019-02-10T13:34:03.041Z,19.4
2019-02-10T13:34:53.627Z,19.4
2019-02-10T13:35:43.090Z,19.4
2019-02-10T13:36:32.877Z,19.3
2019-02-10T13:37:23.233Z,19.3
2019-02-10T13:38:13.272Z,19.1
2019-02-10T13:39:02.565Z,19.2
2019-02-10T13:39:53.113Z,19.3
2019-02-10T13:40:43.462Z,19.3
2019-02-10T13:41:33.497Z,19.4
2019-02-10T13:42:23.842Z,19.5
2019-02-10T13:43:13.612Z,19.6
2019-02-10T13:44:03.190Z,19.6
2019-02-10T13:44:53.816Z,19.6
2019-02-10T13:45:43.304Z,19.6
2019-02-10T13:46:34.407Z,19.4
2019-02-10T13:47:24.444Z,19.4
2019-02-10T13:48:13.982Z,19.3
2019-02-10T13:49:03.749Z,19.1
2019-02-10T13:49:54.349Z,19.1
2019-02-10T13:50:43.862Z,19.1
2019-02-10T13:51:34.265Z,19.1
2019-02-10T13:52:23.423Z,19.1
2019-02-10T13:53:15.803Z,19.2
2019-02-10T13:54:04.922Z,19.2
2019-02-10T13:54:54.222Z,19.1
2019-02-10T13:55:44.766Z,19.1
2019-02-10T13:56:34.539Z,19.2
2019-02-10T13:57:23.856Z,19.1
2019-02-10T13:58:13.969Z,19.1
2019-02-10T13:59:05.047Z,19.1
2019-02-10T13:59:54.574Z,19.1
2019-02-10T14:00:44.844Z,19.2
2019-02-10T14:01:34.978Z,19.2
2019-02-10T14:02:24.693Z,19.3
2019-02-10T14:03:13.429Z,19.3
2019-02-10T14:04:04.861Z,19.3
2019-02-10T14:04:55.143Z,19.4
2019-02-10T14:05:45.472Z,19.4
2019-02-10T14:08:17.106Z,19.5
2019-02-10T14:09:08.230Z,19.4
2019-02-10T14:09:56.936Z,19.5
2019-02-10T14:10:46.818Z,19.4
2019-02-10T14:11:36.039Z,19.4
2019-02-10T14:12:26.623Z,19.4
2019-02-10T14:13:17.140Z,19.5
2019-02-10T14:14:07.786Z,19.4
2019-02-10T14:14:57.303Z,19.4
2019-02-10T14:15:47.070Z,19.4
2019-02-10T14:16:37.473Z,19.4
2019-02-10T14:17:27.174Z,19.4
2019-02-10T14:18:17.308Z,19.3
2019-02-10T14:19:07.081Z,19.3
2019-02-10T14:19:57.892Z,19.2
2019-02-10T14:20:47.392Z,19.2
2019-02-10T14:21:37.765Z,19.2
2019-02-10T14:22:27.357Z,19.2
2019-02-10T14:23:17.890Z,19.3
2019-02-10T14:24:08.190Z,19.2
2019-02-10T14:24:58.259Z,19.2
2019-02-10T14:25:47.219Z,19.2
2019-02-10T14:26:38.130Z,19.3
2019-02-10T14:27:27.322Z,19.3
2019-02-10T14:28:18.259Z,19.3
2019-02-10T14:29:10.422Z,19.3
2019-02-10T14:29:58.594Z,19.4
2019-02-10T14:30:48.400Z,19.3
2019-02-10T14:31:38.462Z,19.3